Time;durP1;ratioP1;P1;durP2;ratioP2;P2;SDS_P1;SDS_P2;PMS_P1;PMS_P2;Temp;Humidity;BMP_temperature;BMP_pressure;BME280_temperature;BME280_humidity;BME280_pressure;Samples;Min_cycle;Max_cycle;Signal;HPM_P1;HPM_P2
2022/08/21 00:00:28;;;;;;;10.60;3.38;;;;;;;;;;5054521;28;20371;-68
2022/08/21 00:02:56;;;;;;;15.23;3.33;;;;;;;;;;5054519;28;20028;-69
2022/08/21 00:05:22;;;;;;;13.25;3.53;;;;;;;;;;5054449;28;20057;-68
2022/08/21 00:07:48;;;;;;;9.23;2.88;;;;;;;;;;5054366;28;20063;-69
2022/08/21 00:10:14;;;;;;;10.00;3.20;;;;;;;;;;5054705;28;20029;-68
2022/08/21 00:12:41;;;;;;;14.90;3.22;;;;;;;;;;5054346;28;20106;-68
2022/08/21 00:15:08;;;;;;;12.18;3.42;;;;;;;;;;5054275;28;20076;-67
2022/08/21 00:17:34;;;;;;;7.57;2.90;;;;;;;;;;5054264;28;20044;-68
2022/08/21 00:20:00;;;;;;;12.50;3.85;;;;;;;;;;5054467;28;20035;-67
2022/08/21 00:22:26;;;;;;;12.77;3.47;;;;;;;;;;5054387;28;20552;-69
2022/08/21 00:24:52;;;;;;;12.13;4.03;;;;;;;;;;5054061;28;20413;-69
2022/08/21 00:27:18;;;;;;;10.93;3.95;;;;;;;;;;5053682;28;20025;-67
2022/08/21 00:29:44;;;;;;;7.60;3.00;;;;;;;;;;5053991;28;20021;-68
2022/08/21 00:32:10;;;;;;;10.10;3.58;;;;;;;;;;5054177;28;20424;-69
2022/08/21 00:34:36;;;;;;;12.10;3.55;;;;;;;;;;5053930;28;20029;-69
2022/08/21 00:37:02;;;;;;;9.98;3.42;;;;;;;;;;5054411;28;20048;-68
2022/08/21 00:39:29;;;;;;;13.00;3.60;;;;;;;;;;5053812;28;20029;-69
2022/08/21 00:41:55;;;;;;;9.07;3.00;;;;;;;;;;5053789;28;20052;-68
2022/08/21 00:44:21;;;;;;;11.55;3.55;;;;;;;;;;5053802;28;20108;-68
2022/08/21 00:46:48;;;;;;;9.57;3.55;;;;;;;;;;5053611;28;20082;-68
2022/08/21 00:49:14;;;;;;;10.55;3.30;;;;;;;;;;5053676;28;20021;-67
2022/08/21 00:51:44;;;;;;;8.65;3.40;;;;;;;;;;5053909;28;20481;-68
2022/08/21 00:54:11;;;;;;;13.45;3.90;;;;;;;;;;5053913;28;20025;-69
2022/08/21 00:56:37;;;;;;;9.68;3.30;;;;;;;;;;5053087;28;20538;-67
2022/08/21 00:59:03;;;;;;;9.10;3.17;;;;;;;;;;5054123;28;20477;-68
2022/08/21 01:01:29;;;;;;;8.30;2.78;;;;;;;;;;5053411;28;20112;-67
2022/08/21 01:03:55;;;;;;;8.48;2.90;;;;;;;;;;5053679;28;20489;-67
2022/08/21 01:06:21;;;;;;;14.70;3.33;;;;;;;;;;5053373;28;20021;-69
2022/08/21 01:08:47;;;;;;;10.13;3.15;;;;;;;;;;5053279;28;20031;-69
2022/08/21 01:11:15;;;;;;;9.63;2.95;;;;;;;;;;5053340;28;20025;-68
2022/08/21 01:13:45;;;;;;;9.25;3.13;;;;;;;;;;5053268;28;20458;-69
2022/08/21 01:16:12;;;;;;;6.90;2.75;;;;;;;;;;5035108;28;20029;-69
2022/08/21 01:18:38;;;;;;;11.57;2.90;;;;;;;;;;5053235;28;20029;-68
2022/08/21 01:21:24;;;;;;;8.65;2.40;;;;;;;;;;5053185;28;20074;-69
2022/08/21 01:23:52;;;;;;;9.07;2.92;;;;;;;;;;5053745;28;20025;-69
2022/08/21 01:26:19;;;;;;;7.45;2.88;;;;;;;;;;5053463;28;20108;-69
2022/08/21 01:28:52;;;;;;;7.90;2.60;;;;;;;;;;5053326;28;20576;-68
2022/08/21 01:31:20;;;;;;;8.60;3.17;;;;;;;;;;5053715;28;20009;-69
2022/08/21 01:33:46;;;;;;;11.15;3.17;;;;;;;;;;5053385;28;20032;-69
2022/08/21 01:36:12;;;;;;;11.63;3.55;;;;;;;;;;5053045;28;20021;-68
2022/08/21 01:38:38;;;;;;;8.63;2.75;;;;;;;;;;5053299;28;20147;-68
2022/08/21 01:41:04;;;;;;;10.18;3.30;;;;;;;;;;5038441;28;20049;-68
2022/08/21 01:43:30;;;;;;;6.93;2.58;;;;;;;;;;5057163;28;20040;-69
2022/08/21 01:45:56;;;;;;;7.75;3.08;;;;;;;;;;5057117;28;20123;-68
2022/08/21 01:48:22;;;;;;;10.65;3.50;;;;;;;;;;5056972;28;20104;-69
2022/08/21 01:50:48;;;;;;;9.13;3.05;;;;;;;;;;5057056;28;20542;-69
2022/08/21 01:53:15;;;;;;;10.13;3.17;;;;;;;;;;5056964;28;20088;-69
2022/08/21 01:55:41;;;;;;;8.93;2.83;;;;;;;;;;5056771;28;20064;-69
2022/08/21 01:58:07;;;;;;;6.47;2.80;;;;;;;;;;5057403;28;20043;-69
2022/08/21 02:00:33;;;;;;;10.95;3.08;;;;;;;;;;5056746;28;20025;-68
2022/08/21 02:02:59;;;;;;;8.93;3.00;;;;;;;;;;5056790;28;20104;-69
2022/08/21 02:05:25;;;;;;;10.23;3.40;;;;;;;;;;5056719;28;20021;-68
2022/08/21 02:07:52;;;;;;;9.13;3.70;;;;;;;;;;5056618;28;20389;-68
2022/08/21 02:10:22;;;;;;;10.05;3.28;;;;;;;;;;5056637;28;20111;-68
2022/08/21 02:12:49;;;;;;;7.47;2.72;;;;;;;;;;5056898;28;20021;-68
2022/08/21 02:15:15;;;;;;;7.70;2.80;;;;;;;;;;5056522;28;20021;-67
2022/08/21 02:17:49;;;;;;;12.80;3.15;;;;;;;;;;5038571;28;20401;-69
2022/08/21 02:20:20;;;;;;;10.02;4.25;;;;;;;;;;5056757;28;20384;-69
2022/08/21 02:22:46;;;;;;;10.23;3.20;;;;;;;;;;5056462;28;20037;-67
2022/08/21 02:25:13;;;;;;;8.88;2.92;;;;;;;;;;5056362;28;20021;-69
2022/08/21 02:27:40;;;;;;;9.60;3.67;;;;;;;;;;5056277;28;20036;-67
2022/08/21 02:30:07;;;;;;;12.82;3.30;;;;;;;;;;5056534;28;20021;-68
2022/08/21 02:32:33;;;;;;;10.10;3.00;;;;;;;;;;5056250;28;20025;-69
2022/08/21 02:34:59;;;;;;;12.20;3.95;;;;;;;;;;5056716;28;20021;-68
2022/08/21 02:37:25;;;;;;;7.30;3.33;;;;;;;;;;5056157;28;20053;-68
2022/08/21 02:39:52;;;;;;;8.43;3.40;;;;;;;;;;5056117;28;20127;-69
2022/08/21 02:42:18;;;;;;;9.25;3.13;;;;;;;;;;5056049;28;20025;-69
2022/08/21 02:44:44;;;;;;;12.75;3.15;;;;;;;;;;5055994;28;20506;-68
2022/08/21 02:47:10;;;;;;;7.07;3.08;;;;;;;;;;5055849;28;20056;-69
2022/08/21 02:49:36;;;;;;;6.20;3.10;;;;;;;;;;5055938;28;20102;-68
2022/08/21 02:52:02;;;;;;;10.88;3.05;;;;;;;;;;5056036;28;20057;-67
2022/08/21 02:54:28;;;;;;;14.32;3.38;;;;;;;;;;5055994;28;20021;-68
2022/08/21 02:56:54;;;;;;;10.02;3.60;;;;;;;;;;5037616;28;20025;-68
2022/08/21 02:59:20;;;;;;;11.40;3.35;;;;;;;;;;5056562;28;20021;-67
2022/08/21 03:01:47;;;;;;;8.40;3.38;;;;;;;;;;5055862;28;20060;-68
2022/08/21 03:04:13;;;;;;;8.25;2.90;;;;;;;;;;5055665;28;20473;-67
2022/08/21 03:06:40;;;;;;;10.52;3.38;;;;;;;;;;5055907;28;20063;-67
2022/08/21 03:09:06;;;;;;;9.48;3.63;;;;;;;;;;5055485;28;20021;-68
2022/08/21 03:11:32;;;;;;;13.23;3.83;;;;;;;;;;5055485;28;20057;-69
2022/08/21 03:13:58;;;;;;;13.55;3.45;;;;;;;;;;5037521;28;20024;-68
2022/08/21 03:16:24;;;;;;;9.00;3.22;;;;;;;;;;5055704;28;20025;-69
2022/08/21 03:18:50;;;;;;;9.85;3.25;;;;;;;;;;5055622;28;20083;-68
2022/08/21 03:21:18;;;;;;;7.35;3.30;;;;;;;;;;5055587;28;20420;-68
2022/08/21 03:23:44;;;;;;;10.65;3.40;;;;;;;;;;5055288;28;20397;-67
2022/08/21 03:26:11;;;;;;;11.38;3.63;;;;;;;;;;5055247;28;20029;-68
2022/08/21 03:28:37;;;;;;;12.52;3.60;;;;;;;;;;5055149;28;20438;-69
2022/08/21 03:31:04;;;;;;;11.07;3.65;;;;;;;;;;5055144;28;20063;-67
2022/08/21 03:33:30;;;;;;;12.43;3.67;;;;;;;;;;5055666;28;20466;-67
2022/08/21 03:36:07;;;;;;;7.32;3.30;;;;;;;;;;5055060;28;20025;-69
2022/08/21 03:38:34;;;;;;;15.43;3.50;;;;;;;;;;5055323;28;20044;-68
2022/08/21 03:41:01;;;;;;;10.35;3.55;;;;;;;;;;5054958;28;20043;-67
2022/08/21 03:43:27;;;;;;;11.52;3.28;;;;;;;;;;5055203;28;20033;-69
2022/08/21 03:45:53;;;;;;;8.60;3.15;;;;;;;;;;5054857;28;20025;-67
2022/08/21 03:48:20;;;;;;;8.00;2.85;;;;;;;;;;5055044;28;20127;-68
2022/08/21 03:50:47;;;;;;;9.93;3.40;;;;;;;;;;5055113;28;20492;-68
2022/08/21 03:53:13;;;;;;;12.18;3.33;;;;;;;;;;5054762;28;20021;-68
2022/08/21 03:55:40;;;;;;;7.75;2.70;;;;;;;;;;5054681;28;20041;-68
2022/08/21 03:58:06;;;;;;;9.38;2.85;;;;;;;;;;5054900;28;20060;-68
2022/08/21 04:00:32;;;;;;;7.43;2.75;;;;;;;;;;5037168;28;20478;-68
2022/08/21 04:02:58;;;;;;;9.27;2.97;;;;;;;;;;5054028;28;20025;-68
2022/08/21 04:05:27;;;;;;;13.10;3.13;;;;;;;;;;5054469;28;20394;-67
2022/08/21 04:07:58;;;;;;;9.85;2.78;;;;;;;;;;5054367;28;20025;-67
2022/08/21 04:10:24;;;;;;;7.57;2.80;;;;;;;;;;5054770;28;20107;-68
2022/08/21 04:12:50;;;;;;;9.13;2.88;;;;;;;;;;5054350;28;20048;-68
2022/08/21 04:15:16;;;;;;;13.10;3.40;;;;;;;;;;5054575;28;20378;-68
2022/08/21 04:17:43;;;;;;;7.95;3.15;;;;;;;;;;5054256;28;20490;-69
2022/08/21 04:20:09;;;;;;;7.95;3.20;;;;;;;;;;5054238;28;20370;-68
2022/08/21 04:22:35;;;;;;;9.63;3.08;;;;;;;;;;5054706;28;20083;-68
2022/08/21 04:25:01;;;;;;;5.85;2.42;;;;;;;;;;5054101;28;20029;-68
2022/08/21 04:27:27;;;;;;;10.05;3.65;;;;;;;;;;5054228;28;20111;-67
2022/08/21 04:29:53;;;;;;;11.18;3.20;;;;;;;;;;5054028;28;20470;-67
2022/08/21 04:32:23;;;;;;;8.80;2.90;;;;;;;;;;5053975;28;20017;-67
2022/08/21 04:34:49;;;;;;;;;;;;;;;;;;5054386;28;20021;-67
2022/08/21 04:37:15;;;;;;;7.35;3.00;;;;;;;;;;5054196;28;20353;-67
2022/08/21 04:39:41;;;;;;;10.57;3.67;;;;;;;;;;5053822;28;20025;-68
2022/08/21 04:42:08;;;;;;;11.32;3.38;;;;;;;;;;5035906;28;20029;-69
2022/08/21 04:44:35;;;;;;;12.70;3.92;;;;;;;;;;5053826;28;20511;-69
2022/08/21 04:47:01;;;;;;;9.10;3.13;;;;;;;;;;5053676;28;20108;-67
2022/08/21 04:49:27;;;;;;;11.27;3.35;;;;;;;;;;5053682;28;20036;-67
2022/08/21 04:51:53;;;;;;;9.00;3.20;;;;;;;;;;5054199;28;20094;-68
2022/08/21 04:54:23;;;;;;;9.05;3.72;;;;;;;;;;5053490;28;20021;-67
2022/08/21 04:56:51;;;;;;;11.40;4.03;;;;;;;;;;5053967;28;20040;-67
2022/08/21 04:59:25;;;;;;;11.50;3.53;;;;;;;;;;5054340;28;20034;-68
2022/08/21 05:01:53;;;;;;;4.78;2.60;;;;;;;;;;5053449;28;20436;-68
2022/08/21 05:04:21;;;;;;;13.50;3.35;;;;;;;;;;5035600;28;20039;-67
2022/08/21 05:06:48;;;;;;;10.23;3.05;;;;;;;;;;5053397;28;20033;-67
2022/08/21 05:09:15;;;;;;;8.60;3.03;;;;;;;;;;5053293;28;20491;-69
2022/08/21 05:11:42;;;;;;;9.10;3.10;;;;;;;;;;5053358;28;20029;-69
2022/08/21 05:14:08;;;;;;;8.98;2.83;;;;;;;;;;5052450;28;20469;-67
2022/08/21 05:16:35;;;;;;;12.18;2.83;;;;;;;;;;5053539;28;20047;-67
2022/08/21 05:19:01;;;;;;;10.70;3.22;;;;;;;;;;5053251;28;20056;-69
2022/08/21 05:21:27;;;;;;;9.07;3.20;;;;;;;;;;5035312;28;20075;-68
2022/08/21 05:23:53;;;;;;;8.52;3.15;;;;;;;;;;5053171;28;20393;-67
2022/08/21 05:26:19;;;;;;;6.95;2.42;;;;;;;;;;5053118;28;20025;-66
2022/08/21 05:28:45;;;;;;;9.75;2.90;;;;;;;;;;5053036;28;20025;-68
2022/08/21 05:31:11;;;;;;;6.75;3.03;;;;;;;;;;5053095;28;20044;-69
2022/08/21 05:33:37;;;;;;;6.25;2.60;;;;;;;;;;5053078;28;20136;-69
2022/08/21 05:36:04;;;;;;;11.32;3.40;;;;;;;;;;5053364;28;20056;-68
2022/08/21 05:38:30;;;;;;;10.63;3.30;;;;;;;;;;5053662;28;20029;-68
2022/08/21 05:40:56;;;;;;;9.65;3.42;;;;;;;;;;5035233;28;20049;-67
2022/08/21 05:43:22;;;;;;;12.23;4.45;;;;;;;;;;5052989;28;20032;-67
2022/08/21 05:45:48;;;;;;;12.43;4.40;;;;;;;;;;5053011;28;20032;-67
2022/08/21 05:48:14;;;;;;;13.05;3.88;;;;;;;;;;5053178;28;20036;-68
2022/08/21 05:50:41;;;;;;;8.25;3.92;;;;;;;;;;5053228;28;20049;-68
2022/08/21 05:53:07;;;;;;;9.13;3.28;;;;;;;;;;5052923;28;20107;-68
2022/08/21 05:55:34;;;;;;;8.10;3.33;;;;;;;;;;5052863;28;20049;-68
2022/08/21 05:58:00;;;;;;;9.35;3.92;;;;;;;;;;5052897;28;20025;-68
2022/08/21 06:00:26;;;;;;;9.95;3.20;;;;;;;;;;5053316;28;20052;-69
2022/08/21 06:02:52;;;;;;;7.30;3.10;;;;;;;;;;5052860;28;20477;-69
2022/08/21 06:05:18;;;;;;;10.32;3.45;;;;;;;;;;5052841;28;20021;-69
2022/08/21 06:07:44;;;;;;;10.07;3.25;;;;;;;;;;5052730;28;20051;-67
2022/08/21 06:10:11;;;;;;;9.32;4.20;;;;;;;;;;5052761;28;20032;-69
2022/08/21 06:12:37;;;;;;;9.32;3.67;;;;;;;;;;5052726;28;20126;-68
2022/08/21 06:15:03;;;;;;;7.50;3.22;;;;;;;;;;5052714;28;20044;-68
2022/08/21 06:17:29;;;;;;;11.55;3.30;;;;;;;;;;5053220;28;20037;-67
2022/08/21 06:19:55;;;;;;;9.68;4.43;;;;;;;;;;5052632;28;20021;-69
2022/08/21 06:22:22;;;;;;;8.52;3.42;;;;;;;;;;5034745;28;20033;-69
2022/08/21 06:24:48;;;;;;;10.18;3.35;;;;;;;;;;5052636;28;20028;-69
2022/08/21 06:27:15;;;;;;;13.10;3.80;;;;;;;;;;5055810;28;20025;-69
2022/08/21 06:29:41;;;;;;;12.15;3.80;;;;;;;;;;5056578;28;20045;-67
2022/08/21 06:32:08;;;;;;;9.15;3.50;;;;;;;;;;5056273;28;20083;-68
2022/08/21 06:34:37;;;;;;;9.45;3.17;;;;;;;;;;5056569;28;20017;-69
2022/08/21 06:37:03;;;;;;;7.53;3.67;;;;;;;;;;5056230;28;20031;-69
2022/08/21 06:39:29;;;;;;;7.38;3.50;;;;;;;;;;5056153;28;20048;-69
2022/08/21 06:41:55;;;;;;;10.88;4.25;;;;;;;;;;5056644;28;20021;-67
2022/08/21 06:44:21;;;;;;;9.65;4.15;;;;;;;;;;5056056;28;20025;-68
2022/08/21 06:46:48;;;;;;;11.02;3.25;;;;;;;;;;5056350;28;20397;-69
2022/08/21 06:49:14;;;;;;;9.75;3.78;;;;;;;;;;5055972;28;20017;-68
2022/08/21 06:51:40;;;;;;;13.85;3.38;;;;;;;;;;5038032;28;20025;-68
2022/08/21 06:54:06;;;;;;;10.63;3.83;;;;;;;;;;5056445;28;20021;-67
2022/08/21 06:56:34;;;;;;;9.25;4.03;;;;;;;;;;5055462;28;20413;-68
2022/08/21 06:59:01;;;;;;;11.63;3.65;;;;;;;;;;5056377;28;20021;-69
2022/08/21 07:01:27;;;;;;;8.52;3.58;;;;;;;;;;5055782;28;20025;-69
2022/08/21 07:03:53;;;;;;;13.45;4.15;;;;;;;;;;5055972;28;20099;-68
2022/08/21 07:06:19;;;;;;;8.85;3.45;;;;;;;;;;5055637;28;20060;-67
2022/08/21 07:08:45;;;;;;;11.38;3.72;;;;;;;;;;5055568;28;20128;-68
2022/08/21 07:11:22;;;;;;;10.10;3.47;;;;;;;;;;5055534;28;20021;-69
2022/08/21 07:13:48;;;;;;;11.57;4.15;;;;;;;;;;5055839;28;20029;-69
2022/08/21 07:16:15;;;;;;;8.80;3.58;;;;;;;;;;5055728;28;20033;-69
2022/08/21 07:18:41;;;;;;;6.95;3.05;;;;;;;;;;5055383;28;20029;-69
2022/08/21 07:21:07;;;;;;;8.35;3.95;;;;;;;;;;5055363;28;20036;-68
2022/08/21 07:23:35;;;;;;;11.90;4.03;;;;;;;;;;5055331;28;20029;-69
2022/08/21 07:26:01;;;;;;;17.25;3.88;;;;;;;;;;5055276;28;20029;-68
2022/08/21 07:28:28;;;;;;;12.57;3.92;;;;;;;;;;5055209;28;20532;-68
2022/08/21 07:30:56;;;;;;;10.85;3.60;;;;;;;;;;5055487;28;20079;-67
2022/08/21 07:33:23;;;;;;;19.48;4.35;;;;;;;;;;5037285;28;20056;-69
2022/08/21 07:35:49;;;;;;;12.45;3.40;;;;;;;;;;5055391;28;20029;-68
2022/08/21 07:38:15;;;;;;;11.68;3.83;;;;;;;;;;5054082;28;20028;-68
2022/08/21 07:40:41;;;;;;;12.48;3.80;;;;;;;;;;5055282;28;20063;-69
2022/08/21 07:43:07;;;;;;;10.05;4.20;;;;;;;;;;5055232;28;20021;-68
2022/08/21 07:45:33;;;;;;;9.43;3.58;;;;;;;;;;5055175;28;20047;-69
2022/08/21 07:47:59;;;;;;;12.77;4.15;;;;;;;;;;5055322;28;20024;-69
2022/08/21 07:50:25;;;;;;;13.30;3.65;;;;;;;;;;5054862;28;20032;-68
2022/08/21 07:52:52;;;;;;;13.20;3.67;;;;;;;;;;5054760;28;20021;-68
2022/08/21 07:55:19;;;;;;;12.02;3.47;;;;;;;;;;5054938;28;20053;-68
2022/08/21 07:57:46;;;;;;;10.73;3.78;;;;;;;;;;5054693;28;20155;-68
2022/08/21 08:00:14;;;;;;;11.95;3.58;;;;;;;;;;5055058;28;20035;-67
2022/08/21 08:02:40;;;;;;;9.27;3.58;;;;;;;;;;5054563;28;20057;-68
2022/08/21 08:05:08;;;;;;;11.98;4.07;;;;;;;;;;5054525;28;20032;-69
2022/08/21 08:07:34;;;;;;;11.00;3.40;;;;;;;;;;5055006;28;20060;-67
2022/08/21 08:10:01;;;;;;;13.57;3.40;;;;;;;;;;5054712;28;20053;-69
2022/08/21 08:12:29;;;;;;;11.77;2.75;;;;;;;;;;5054680;28;20355;-69
2022/08/21 08:14:59;;;;;;;10.98;3.58;;;;;;;;;;5054677;28;20028;-68
2022/08/21 08:17:25;;;;;;;10.02;2.97;;;;;;;;;;5054593;28;20099;-69
2022/08/21 08:19:51;;;;;;;13.07;3.50;;;;;;;;;;5054263;28;20524;-68
2022/08/21 08:22:19;;;;;;;12.55;3.30;;;;;;;;;;5054192;28;20029;-68
2022/08/21 08:24:45;;;;;;;8.80;2.78;;;;;;;;;;5036298;28;20029;-69
2022/08/21 08:27:11;;;;;;;13.45;2.83;;;;;;;;;;5054059;28;20079;-68
2022/08/21 08:29:37;;;;;;;14.68;2.97;;;;;;;;;;5054370;28;20053;-69
2022/08/21 08:32:04;;;;;;;9.15;2.92;;;;;;;;;;5054298;28;20021;-67
2022/08/21 08:34:30;;;;;;;7.40;2.10;;;;;;;;;;5054236;28;20100;-69
2022/08/21 08:36:58;;;;;;;8.93;2.28;;;;;;;;;;5053955;28;20017;-68
2022/08/21 08:39:25;;;;;;;7.82;2.50;;;;;;;;;;5036019;28;20029;-69
2022/08/21 08:41:52;;;;;;;7.78;2.40;;;;;;;;;;5053867;28;20060;-67
2022/08/21 08:44:18;;;;;;;11.10;2.13;;;;;;;;;;5054081;28;20108;-68
2022/08/21 08:46:48;;;;;;;7.47;1.80;;;;;;;;;;5053829;28;20028;-69
2022/08/21 08:49:17;;;;;;;10.82;2.28;;;;;;;;;;5053571;28;20119;-69
2022/08/21 08:51:46;;;;;;;7.67;2.00;;;;;;;;;;5053981;28;20013;-67
2022/08/21 08:54:16;;;;;;;5.07;1.95;;;;;;;;;;5053894;28;20025;-68
2022/08/21 08:56:44;;;;;;;10.02;2.80;;;;;;;;;;5053198;28;20080;-68
2022/08/21 08:59:21;;;;;;;8.80;2.08;;;;;;;;;;5054431;28;20546;-68
2022/08/21 09:01:47;;;;;;;8.77;2.40;;;;;;;;;;5053648;28;20036;-69
2022/08/21 09:04:13;;;;;;;7.35;2.28;;;;;;;;;;5053532;28;20036;-68
2022/08/21 09:06:50;;;;;;;8.77;2.30;;;;;;;;;;5053741;28;20493;-67
2022/08/21 09:09:31;;;;;;;6.43;2.17;;;;;;;;;;5053578;28;20025;-68
2022/08/21 09:11:57;;;;;;;7.35;1.67;;;;;;;;;;5053910;28;20469;-67
2022/08/21 09:14:23;;;;;;;9.90;2.22;;;;;;;;;;5053352;28;20032;-69
2022/08/21 09:17:05;;;;;;;7.70;2.10;;;;;;;;;;5053441;28;20017;-68
2022/08/21 09:19:41;;;;;;;6.50;2.05;;;;;;;;;;5053504;28;20108;-68
2022/08/21 09:22:17;;;;;;;7.60;1.90;;;;;;;;;;5053526;28;20025;-69
2022/08/21 09:24:46;;;;;;;4.53;1.50;;;;;;;;;;5053744;28;20086;-69
2022/08/21 09:27:14;;;;;;;3.53;1.55;;;;;;;;;;5035250;28;20070;-68
2022/08/21 09:29:42;;;;;;;6.25;1.75;;;;;;;;;;5053626;28;20032;-69
2022/08/21 09:32:18;;;;;;;5.25;2.05;;;;;;;;;;5053518;28;20083;-70
2022/08/21 09:34:55;;;;;;;7.07;2.00;;;;;;;;;;5052983;28;20339;-68
2022/08/21 09:37:21;;;;;;;6.78;2.25;;;;;;;;;;5053285;28;20017;-70
2022/08/21 09:39:47;;;;;;;6.00;1.83;;;;;;;;;;5052940;28;20032;-68
2022/08/21 09:42:21;;;;;;;7.07;2.00;;;;;;;;;;5052980;28;20029;-67
2022/08/21 09:44:47;;;;;;;7.63;2.15;;;;;;;;;;5052676;28;20401;-69
2022/08/21 09:47:13;;;;;;;8.75;2.25;;;;;;;;;;5053109;28;20470;-68
2022/08/21 09:49:41;;;;;;;9.13;2.30;;;;;;;;;;5035316;28;20021;-67
2022/08/21 09:52:15;;;;;;;9.55;2.40;;;;;;;;;;5053388;28;20021;-68
2022/08/21 09:54:41;;;;;;;10.10;2.45;;;;;;;;;;5053002;28;20049;-69
2022/08/21 09:59:55;;;;;;;10.63;2.17;;;;;;;;;;5053405;28;20082;-68
2022/08/21 10:02:31;;;;;;;11.98;3.13;;;;;;;;;;5056343;28;20417;-68
2022/08/21 10:04:59;;;;;;;7.60;2.10;;;;;;;;;;5056967;28;20025;-68
2022/08/21 10:07:26;;;;;;;11.55;2.45;;;;;;;;;;5056863;28;20033;-68
2022/08/21 10:10:18;;;;;;;8.57;2.20;;;;;;;;;;5056591;28;20025;-69
2022/08/21 10:12:47;;;;;;;9.95;2.65;;;;;;;;;;5054549;28;20036;-69
2022/08/21 10:15:16;;;;;;;8.30;2.42;;;;;;;;;;5056509;28;20025;-67
2022/08/21 10:17:53;;;;;;;8.57;2.53;;;;;;;;;;5038642;28;20021;-68
2022/08/21 10:20:36;;;;;;;8.52;2.67;;;;;;;;;;5056484;28;20397;-68
2022/08/21 10:23:14;;;;;;;8.82;2.47;;;;;;;;;;5056455;28;20024;-68
2022/08/21 10:26:02;;;;;;;10.68;2.80;;;;;;;;;;5056336;28;20397;-69
2022/08/21 10:28:33;;;;;;;8.45;2.47;;;;;;;;;;5056725;28;20134;-67
2022/08/21 10:31:05;;;;;;;9.48;2.53;;;;;;;;;;5056614;28;20096;-69
2022/08/21 10:33:47;;;;;;;8.73;2.60;;;;;;;;;;5056274;28;20024;-69
2022/08/21 10:36:22;;;;;;;9.63;2.30;;;;;;;;;;5056463;28;20021;-68
2022/08/21 10:39:02;;;;;;;8.05;2.83;;;;;;;;;;5056029;28;20025;-68
2022/08/21 10:41:46;;;;;;;8.45;2.10;;;;;;;;;;5056420;28;20477;-69
2022/08/21 10:44:38;;;;;;;11.95;2.50;;;;;;;;;;5055990;28;20044;-69
2022/08/21 10:47:06;;;;;;;7.38;2.00;;;;;;;;;;5040137;28;20094;-69
2022/08/21 10:49:35;;;;;;;7.90;2.10;;;;;;;;;;5055148;28;20053;-68
2022/08/21 10:52:20;;;;;;;7.88;2.13;;;;;;;;;;5055786;28;20025;-69
2022/08/21 10:54:46;;;;;;;6.03;2.10;;;;;;;;;;5055519;28;20048;-67
2022/08/21 10:57:19;;;;;;;7.50;1.77;;;;;;;;;;5056341;28;20056;-69
2022/08/21 10:59:54;;;;;;;5.72;2.03;;;;;;;;;;5056595;28;20028;-67
2022/08/21 11:02:24;;;;;;;8.50;2.08;;;;;;;;;;5055759;28;20029;-68
2022/08/21 11:04:56;;;;;;;8.00;2.17;;;;;;;;;;5056307;28;20021;-69
2022/08/21 11:07:27;;;;;;;8.85;2.28;;;;;;;;;;5055751;28;20036;-68
2022/08/21 11:09:55;;;;;;;6.60;2.10;;;;;;;;;;5055952;28;20025;-68
2022/08/21 11:12:26;;;;;;;7.13;2.10;;;;;;;;;;5054160;28;20032;-67
2022/08/21 11:14:52;;;;;;;7.95;2.17;;;;;;;;;;5055498;28;20073;-69
2022/08/21 11:17:25;;;;;;;9.30;3.30;;;;;;;;;;5055489;28;20052;-68
2022/08/21 11:19:59;;;;;;;7.80;2.22;;;;;;;;;;5055451;28;20143;-68
2022/08/21 11:22:45;;;;;;;6.70;2.00;;;;;;;;;;5055976;28;20450;-69
2022/08/21 11:25:29;;;;;;;7.13;2.13;;;;;;;;;;5055534;28;20095;-68
2022/08/21 11:27:59;;;;;;;4.88;1.98;;;;;;;;;;5055118;28;20039;-69
2022/08/21 11:30:28;;;;;;;4.43;1.80;;;;;;;;;;5055850;28;20013;-68
2022/08/21 11:33:00;;;;;;;7.93;2.30;;;;;;;;;;5055268;28;20454;-68
2022/08/21 11:35:32;;;;;;;9.00;2.58;;;;;;;;;;5055441;28;20099;-69
2022/08/21 11:37:58;;;;;;;6.30;2.50;;;;;;;;;;5055374;28;20033;-68
2022/08/21 11:40:35;;;;;;;8.30;2.67;;;;;;;;;;5055040;28;20048;-67
2022/08/21 11:43:17;;;;;;;7.70;2.72;;;;;;;;;;5055605;28;20029;-68
2022/08/21 11:45:54;;;;;;;7.50;2.50;;;;;;;;;;5055269;28;20052;-68
2022/08/21 11:48:36;;;;;;;5.97;2.42;;;;;;;;;;5054824;28;20032;-69
2022/08/21 11:51:06;;;;;;;4.75;1.88;;;;;;;;;;5055406;28;20052;-68
2022/08/21 11:53:39;;;;;;;5.28;2.00;;;;;;;;;;5055056;28;20029;-68
2022/08/21 11:56:11;;;;;;;5.97;2.13;;;;;;;;;;5054737;28;20584;-69
2022/08/21 11:58:37;;;;;;;5.85;2.08;;;;;;;;;;5054683;28;20089;-68
2022/08/21 12:01:11;;;;;;;4.55;2.08;;;;;;;;;;5055081;28;20021;-68
2022/08/21 12:03:40;;;;;;;4.30;1.90;;;;;;;;;;5054634;28;20505;-68
2022/08/21 12:06:10;;;;;;;3.10;1.83;;;;;;;;;;5054846;28;20413;-69
2022/08/21 12:08:37;;;;;;;3.80;1.45;;;;;;;;;;5055020;28;20024;-67
2022/08/21 12:11:03;;;;;;;4.13;1.95;;;;;;;;;;5055036;28;20022;-67
2022/08/21 12:13:31;;;;;;;5.05;1.77;;;;;;;;;;5054464;28;20025;-69
2022/08/21 12:16:11;;;;;;;3.08;1.48;;;;;;;;;;5054936;28;20040;-69
2022/08/21 12:18:37;;;;;;;2.97;1.70;;;;;;;;;;5054408;28;20463;-69
2022/08/21 12:21:06;;;;;;;3.63;1.58;;;;;;;;;;5036344;28;20394;-67
2022/08/21 12:23:56;;;;;;;5.55;1.95;;;;;;;;;;5053999;28;20389;-69
2022/08/21 12:26:30;;;;;;;4.67;1.97;;;;;;;;;;5035245;28;20060;-69
2022/08/21 12:29:16;;;;;;;4.53;2.10;;;;;;;;;;5054374;28;20060;-68
2022/08/21 12:32:09;;;;;;;3.10;2.08;;;;;;;;;;5054377;28;20058;-69
2022/08/21 12:34:46;;;;;;;5.32;2.03;;;;;;;;;;5038665;28;20415;-68
2022/08/21 12:37:19;;;;;;;3.95;2.05;;;;;;;;;;5054243;28;20083;-68
2022/08/21 12:39:47;;;;;;;4.53;2.00;;;;;;;;;;5054266;28;20020;-67
2022/08/21 12:42:13;;;;;;;2.15;1.85;;;;;;;;;;5053869;28;20029;-69
2022/08/21 12:44:42;;;;;;;3.20;1.70;;;;;;;;;;5053817;28;20075;-67
2022/08/21 12:47:17;;;;;;;5.18;1.80;;;;;;;;;;5054324;28;20083;-69
2022/08/21 12:49:52;;;;;;;3.20;1.58;;;;;;;;;;5053757;28;20029;-68
2022/08/21 12:52:22;;;;;;;2.67;1.50;;;;;;;;;;5054020;28;20025;-67
2022/08/21 12:54:48;;;;;;;2.33;1.73;;;;;;;;;;5053888;28;20045;-68
2022/08/21 12:57:25;;;;;;;1.70;1.50;;;;;;;;;;5035746;28;20577;-69
2022/08/21 12:59:56;;;;;;;3.00;1.50;;;;;;;;;;5036170;28;20384;-69
2022/08/21 13:02:25;;;;;;;9.32;1.40;;;;;;;;;;5053508;28;20051;-69
2022/08/21 13:04:54;;;;;;;1.80;1.38;;;;;;;;;;5053748;28;20478;-67
2022/08/21 13:07:24;;;;;;;2.87;1.40;;;;;;;;;;5053430;28;20104;-69
2022/08/21 13:09:54;;;;;;;1.35;1.25;;;;;;;;;;5053749;28;20380;-69
2022/08/21 13:12:21;;;;;;;1.85;1.15;;;;;;;;;;5053670;28;20362;-69
2022/08/21 13:14:49;;;;;;;2.05;1.25;;;;;;;;;;5053670;28;20036;-69
2022/08/21 13:17:17;;;;;;;2.25;1.58;;;;;;;;;;5053609;28;20477;-69
2022/08/21 13:19:52;;;;;;;4.53;1.40;;;;;;;;;;5053530;28;20036;-69
2022/08/21 13:22:18;;;;;;;1.88;1.10;;;;;;;;;;5053559;28;20024;-68
2022/08/21 13:24:47;;;;;;;1.50;1.20;;;;;;;;;;5053225;28;20029;-69
2022/08/21 13:27:34;;;;;;;1.42;1.33;;;;;;;;;;5053210;28;20108;-69
2022/08/21 13:30:06;;;;;;;2.08;1.20;;;;;;;;;;5053488;28;20029;-68
2022/08/21 13:32:34;;;;;;;2.25;1.30;;;;;;;;;;5053456;28;20021;-69
2022/08/21 13:35:07;;;;;;;3.17;1.40;;;;;;;;;;5052711;28;20112;-69
2022/08/21 13:37:33;;;;;;;1.80;1.15;;;;;;;;;;5053356;28;20466;-67
2022/08/21 13:39:59;;;;;;;3.33;1.50;;;;;;;;;;5053041;28;20028;-69
2022/08/21 13:42:25;;;;;;;2.30;1.52;;;;;;;;;;5053010;28;20029;-68
2022/08/21 13:44:53;;;;;;;2.75;1.10;;;;;;;;;;5053000;28;20025;-69
2022/08/21 13:47:19;;;;;;;2.35;1.45;;;;;;;;;;5052999;28;20049;-68
2022/08/21 13:49:49;;;;;;;2.90;1.50;;;;;;;;;;5053539;28;20018;-69
2022/08/21 13:52:23;;;;;;;4.95;1.55;;;;;;;;;;5052979;28;20021;-68
2022/08/21 13:55:12;;;;;;;2.72;1.65;;;;;;;;;;5053219;28;20045;-68
2022/08/21 13:57:38;;;;;;;1.92;1.50;;;;;;;;;;5047433;28;20056;-69
2022/08/21 14:00:12;;;;;;;1.88;1.30;;;;;;;;;;5053359;28;20029;-68
2022/08/21 14:02:42;;;;;;;3.38;1.77;;;;;;;;;;5052878;28;20040;-68
2022/08/21 14:05:15;;;;;;;4.13;1.60;;;;;;;;;;5052866;28;20028;-68
2022/08/21 14:07:42;;;;;;;4.68;1.77;;;;;;;;;;5053327;28;20528;-69
2022/08/21 14:10:14;;;;;;;3.45;1.60;;;;;;;;;;5034951;28;20044;-69
2022/08/21 14:12:49;;;;;;;2.83;1.75;;;;;;;;;;5053358;28;20060;-68
2022/08/21 14:15:16;;;;;;;4.00;1.80;;;;;;;;;;5052758;28;20395;-68
2022/08/21 14:17:42;;;;;;;3.92;1.48;;;;;;;;;;5052765;28;20029;-68
2022/08/21 14:20:13;;;;;;;2.10;1.23;;;;;;;;;;5052663;28;20029;-69
2022/08/21 14:22:39;;;;;;;2.95;1.17;;;;;;;;;;5053249;28;20033;-68
2022/08/21 14:25:08;;;;;;;2.38;1.10;;;;;;;;;;5052652;28;20025;-68
2022/08/21 14:27:35;;;;;;;5.97;1.40;;;;;;;;;;5052575;28;20079;-69
2022/08/21 14:30:04;;;;;;;1.92;1.17;;;;;;;;;;5052602;28;20075;-68
2022/08/21 14:32:37;;;;;;;2.70;1.40;;;;;;;;;;5052567;28;20100;-68
2022/08/21 14:35:03;;;;;;;2.25;1.30;;;;;;;;;;5053171;28;20029;-69
2022/08/21 14:37:29;;;;;;;2.85;1.60;;;;;;;;;;5052524;28;20030;-68
2022/08/21 14:39:55;;;;;;;2.13;1.30;;;;;;;;;;5052600;28;20013;-68
2022/08/21 14:42:21;;;;;;;3.40;1.45;;;;;;;;;;5052522;28;20577;-68
2022/08/21 14:44:47;;;;;;;1.60;1.33;;;;;;;;;;5052465;28;20052;-69
2022/08/21 14:47:13;;;;;;;0.85;0.85;;;;;;;;;;5054600;28;20453;-69
2022/08/21 14:49:39;;;;;;;2.10;1.10;;;;;;;;;;5055958;28;20028;-69